createdAt,value
2023-03-05T00:00:05.401Z,77.40
2023-03-05T00:02:32.426Z,77.20
2023-03-05T00:05:02.143Z,77.20
2023-03-05T00:07:28.943Z,77.00
2023-03-05T00:09:55.624Z,77.20
2023-03-05T00:12:22.811Z,77.00
2023-03-05T00:14:49.471Z,76.70
2023-03-05T00:17:16.264Z,76.80
2023-03-05T00:19:43.946Z,76.70
2023-03-05T00:22:10.607Z,76.40
2023-03-05T00:24:37.310Z,76.40
2023-03-05T00:27:05.341Z,76.40
2023-03-05T00:29:32.026Z,76.20
2023-03-05T00:31:58.715Z,75.90
2023-03-05T00:34:25.874Z,75.90
2023-03-05T00:36:52.937Z,75.60
2023-03-05T00:39:20.551Z,75.90
2023-03-05T00:41:47.358Z,75.60
2023-03-05T00:44:14.264Z,75.70
2023-03-05T00:46:41.237Z,75.80
2023-03-05T00:49:10.267Z,75.80
2023-03-05T00:51:37.188Z,75.80
2023-03-05T00:54:04.349Z,76.00
2023-03-05T00:56:31.319Z,75.90
2023-03-05T00:58:58.180Z,76.00
2023-03-05T01:01:25.195Z,75.80
2023-03-05T01:03:52.106Z,76.10
2023-03-05T01:06:18.996Z,75.90
2023-03-05T01:08:46.387Z,76.20
2023-03-05T01:11:13.340Z,76.10
2023-03-05T01:13:40.424Z,76.30
2023-03-05T01:16:07.320Z,76.10
2023-03-05T01:18:34.751Z,76.40
2023-03-05T01:21:01.503Z,76.90
2023-03-05T01:23:28.333Z,77.30
2023-03-05T01:25:56.491Z,77.10
2023-03-05T01:28:26.590Z,77.60
2023-03-05T01:30:53.360Z,77.30
2023-03-05T01:33:20.256Z,77.00
2023-03-05T01:35:48.188Z,77.30
2023-03-05T01:38:15.143Z,77.10
2023-03-05T01:40:42.850Z,77.10
2023-03-05T01:43:12.669Z,77.50
2023-03-05T01:46:00.375Z,77.10
2023-03-05T01:48:27.550Z,76.90
2023-03-05T01:50:54.308Z,77.10
2023-03-05T01:53:21.559Z,76.80
2023-03-05T01:55:48.219Z,76.50
2023-03-05T01:58:15.175Z,76.50
2023-03-05T02:00:45.320Z,76.40
2023-03-05T02:03:13.224Z,76.50
2023-03-05T02:05:41.195Z,76.00
2023-03-05T02:08:09.737Z,76.10
2023-03-05T02:10:44.140Z,76.60
2023-03-05T02:13:13.320Z,76.70
2023-03-05T02:15:40.281Z,76.60
2023-03-05T02:18:07.346Z,76.80
2023-03-05T02:20:50.726Z,77.10
2023-03-05T02:23:18.263Z,77.10
2023-03-05T02:25:45.313Z,76.80
2023-03-05T02:28:11.909Z,76.90
2023-03-05T02:30:38.889Z,77.10
2023-03-05T02:33:05.852Z,77.10
2023-03-05T02:35:33.172Z,77.20
2023-03-05T02:37:59.864Z,77.20
2023-03-05T02:40:26.551Z,77.30
2023-03-05T02:42:53.669Z,77.50
2023-03-05T02:45:20.483Z,77.40
2023-03-05T02:47:49.501Z,77.80
2023-03-05T02:50:16.483Z,77.80
2023-03-05T02:52:43.355Z,77.90
2023-03-05T02:55:11.108Z,77.70
2023-03-05T02:57:38.039Z,77.80
2023-03-05T03:00:05.671Z,77.70
2023-03-05T03:02:32.686Z,77.80
2023-03-05T03:04:59.296Z,77.60
2023-03-05T03:07:26.605Z,77.50
2023-03-05T03:09:53.299Z,77.50
2023-03-05T03:12:21.219Z,77.90
2023-03-05T03:14:48.093Z,78.10
2023-03-05T03:17:16.050Z,77.80
2023-03-05T03:19:43.190Z,77.90
2023-03-05T03:22:10.312Z,78.00
2023-03-05T03:24:38.307Z,77.80
2023-03-05T03:27:04.971Z,78.00
2023-03-05T03:29:31.623Z,78.00
2023-03-05T03:31:58.485Z,77.80
2023-03-05T03:34:25.462Z,78.00
2023-03-05T03:36:55.123Z,78.00
2023-03-05T03:39:22.070Z,77.90
2023-03-05T03:41:50.060Z,77.90
2023-03-05T03:44:18.635Z,78.40
2023-03-05T03:46:46.328Z,78.20
2023-03-05T03:49:18.043Z,78.40
2023-03-05T03:51:45.150Z,78.50
2023-03-05T03:54:12.381Z,78.20
2023-03-05T03:56:39.184Z,78.30
2023-03-05T03:59:05.901Z,78.40
2023-03-05T04:01:33.614Z,78.50
2023-03-05T04:04:01.575Z,78.20
2023-03-05T04:06:28.540Z,78.00
2023-03-05T04:08:55.305Z,78.20
2023-03-05T04:11:22.221Z,78.20
2023-03-05T04:13:49.152Z,78.00
2023-03-05T04:16:16.762Z,78.00
2023-03-05T04:18:43.675Z,78.20
2023-03-05T04:21:10.607Z,78.00
2023-03-05T04:23:37.452Z,78.30
2023-03-05T04:26:05.435Z,78.10
2023-03-05T04:28:32.628Z,78.60
2023-03-05T04:30:59.589Z,78.30
2023-03-05T04:33:26.174Z,78.90
2023-03-05T04:35:53.589Z,79.10
2023-03-05T04:38:22.372Z,79.50
2023-03-05T04:40:51.462Z,79.80
2023-03-05T04:43:18.161Z,80.10
2023-03-05T04:45:45.210Z,80.40
2023-03-05T04:48:12.407Z,80.60
2023-03-05T04:50:39.063Z,80.60
2023-03-05T04:53:06.402Z,80.30
2023-03-05T04:55:33.111Z,80.50
2023-03-05T04:58:00.055Z,80.60
2023-03-05T05:00:26.798Z,80.90
2023-03-05T05:02:53.637Z,80.90
2023-03-05T05:05:21.860Z,80.90
2023-03-05T05:07:48.847Z,81.20
2023-03-05T05:10:15.841Z,81.30
2023-03-05T05:12:43.702Z,81.10
2023-03-05T05:15:13.111Z,81.20
2023-03-05T05:17:39.724Z,81.90
2023-03-05T05:20:06.725Z,81.20
2023-03-05T05:22:34.276Z,82.00
2023-03-05T05:25:01.026Z,81.90
2023-03-05T05:27:28.201Z,81.70
2023-03-05T05:29:54.860Z,82.20
2023-03-05T05:32:22.709Z,82.10
2023-03-05T05:34:49.892Z,81.80
2023-03-05T05:37:16.918Z,81.80
2023-03-05T05:39:49.997Z,81.50
2023-03-05T05:42:17.633Z,81.70
2023-03-05T05:44:44.917Z,82.40
2023-03-05T05:47:11.654Z,82.20
2023-03-05T05:49:38.508Z,82.00
2023-03-05T05:52:05.748Z,81.80
2023-03-05T05:54:32.486Z,82.00
2023-03-05T05:56:59.683Z,82.30
2023-03-05T05:59:26.620Z,82.20
2023-03-05T06:01:53.608Z,82.30
2023-03-05T06:04:20.925Z,82.50
2023-03-05T06:06:47.856Z,82.40
2023-03-05T06:09:14.743Z,82.30
2023-03-05T06:11:41.750Z,82.20
2023-03-05T06:14:08.980Z,82.20
2023-03-05T06:16:35.691Z,82.10
2023-03-05T06:19:04.798Z,82.00
2023-03-05T06:21:31.806Z,81.90
2023-03-05T06:23:58.741Z,81.80
2023-03-05T06:26:26.693Z,81.80
2023-03-05T06:28:54.112Z,81.90
2023-03-05T06:31:22.442Z,81.90
2023-03-05T06:33:49.529Z,81.50
2023-03-05T06:36:17.696Z,81.50
2023-03-05T06:38:44.536Z,81.50
2023-03-05T06:41:15.076Z,81.50
2023-03-05T06:43:43.020Z,81.60
2023-03-05T06:46:14.765Z,81.50
2023-03-05T06:48:43.028Z,81.50
2023-03-05T06:51:14.749Z,81.60
2023-03-05T06:53:41.654Z,81.50
2023-03-05T06:56:08.592Z,81.40
2023-03-05T06:58:35.454Z,81.40
2023-03-05T07:01:04.305Z,81.00
2023-03-05T07:03:30.989Z,81.20
2023-03-05T07:06:02.636Z,81.10
2023-03-05T07:08:29.472Z,81.10
2023-03-05T07:10:56.581Z,80.80
2023-03-05T07:13:23.290Z,80.60
2023-03-05T07:15:50.766Z,80.60
2023-03-05T07:18:17.542Z,80.50
2023-03-05T07:20:44.173Z,80.50
2023-03-05T07:23:13.132Z,80.40
2023-03-05T07:25:40.138Z,80.30
2023-03-05T07:28:07.173Z,80.20
2023-03-05T07:30:34.590Z,80.20
2023-03-05T07:33:02.857Z,79.90
2023-03-05T07:35:29.611Z,80.10
2023-03-05T07:37:56.597Z,79.90
2023-03-05T07:40:23.299Z,80.00
2023-03-05T07:42:51.310Z,79.90
2023-03-05T07:45:17.943Z,79.80
2023-03-05T07:47:46.284Z,79.80
2023-03-05T07:50:13.008Z,80.00
2023-03-05T07:52:39.637Z,79.60
2023-03-05T07:55:06.503Z,79.80
2023-03-05T07:57:33.230Z,79.70
2023-03-05T07:59:59.852Z,80.10
2023-03-05T08:02:26.597Z,80.10
2023-03-05T08:04:55.860Z,79.50
2023-03-05T08:07:23.266Z,79.40
2023-03-05T08:09:49.927Z,79.20
2023-03-05T08:12:21.051Z,79.20
2023-03-05T08:14:47.915Z,79.20
2023-03-05T08:17:14.729Z,78.90
2023-03-05T08:19:41.549Z,78.70
2023-03-05T08:22:08.576Z,78.00
2023-03-05T08:24:35.249Z,77.80
2023-03-05T08:27:01.956Z,77.60
2023-03-05T08:29:28.664Z,77.80
2023-03-05T08:31:56.807Z,77.70
2023-03-05T08:34:23.765Z,77.70
2023-03-05T08:36:50.733Z,77.60
2023-03-05T08:39:18.575Z,77.60
2023-03-05T08:41:47.069Z,77.60
2023-03-05T08:44:13.830Z,77.60
2023-03-05T08:46:42.951Z,77.30
2023-03-05T08:49:09.999Z,77.20
2023-03-05T08:51:36.651Z,77.20
2023-03-05T08:54:07.175Z,76.90
2023-03-05T08:56:34.426Z,77.00
2023-03-05T08:59:01.252Z,76.60
2023-03-05T09:01:29.093Z,76.30
2023-03-05T09:03:56.029Z,76.30
2023-03-05T09:06:23.095Z,75.90
2023-03-05T09:08:49.754Z,75.60
2023-03-05T09:11:16.473Z,75.40
2023-03-05T09:13:43.239Z,74.90
2023-03-05T09:16:14.441Z,74.70
2023-03-05T09:18:41.678Z,74.30
2023-03-05T09:21:09.728Z,74.10
2023-03-05T09:23:36.623Z,74.30
2023-03-05T09:26:05.511Z,73.50
2023-03-05T09:28:32.333Z,73.30
2023-03-05T09:31:02.100Z,72.90
2023-03-05T09:33:29.076Z,72.90
2023-03-05T09:35:56.269Z,73.10
2023-03-05T09:38:22.985Z,73.00
2023-03-05T09:41:07.830Z,72.90
2023-03-05T09:43:43.354Z,72.50
2023-03-05T09:46:26.348Z,72.20
2023-03-05T09:49:03.285Z,71.80
2023-03-05T09:51:32.138Z,71.60
2023-03-05T09:54:01.682Z,71.40
2023-03-05T09:56:31.127Z,71.70
2023-03-05T09:59:19.297Z,71.00
2023-03-05T10:01:46.371Z,71.20
2023-03-05T10:04:13.578Z,70.70
2023-03-05T10:06:47.317Z,71.00
2023-03-05T10:09:36.579Z,70.40
2023-03-05T10:12:17.597Z,70.00
2023-03-05T10:14:45.307Z,69.90
2023-03-05T10:17:27.412Z,69.80
2023-03-05T10:19:57.128Z,69.10
2023-03-05T10:22:23.863Z,69.80
2023-03-05T10:24:53.887Z,69.00
2023-03-05T10:27:26.318Z,69.20
2023-03-05T10:30:02.970Z,68.40
2023-03-05T10:32:36.196Z,68.70
2023-03-05T10:35:05.583Z,67.50
2023-03-05T10:37:32.585Z,68.00
2023-03-05T10:40:05.980Z,66.70
2023-03-05T10:42:37.604Z,66.60
2023-03-05T10:45:24.696Z,66.70
2023-03-05T10:47:54.057Z,65.40
2023-03-05T10:50:35.870Z,65.80
2023-03-05T10:53:07.597Z,64.90
2023-03-05T10:55:35.689Z,64.10
2023-03-05T10:58:10.539Z,65.60
2023-03-05T11:00:37.602Z,65.50
2023-03-05T11:03:11.004Z,64.80
2023-03-05T11:05:41.626Z,63.90
2023-03-05T11:08:29.612Z,65.10
2023-03-05T11:11:08.439Z,64.70
2023-03-05T11:13:51.453Z,63.40
2023-03-05T11:16:27.683Z,63.70
2023-03-05T11:19:14.792Z,63.60
2023-03-05T11:21:42.450Z,62.90
2023-03-05T11:24:13.971Z,63.00
2023-03-05T11:26:49.453Z,62.20
2023-03-05T11:29:18.255Z,62.90
2023-03-05T11:31:44.973Z,62.60
2023-03-05T11:34:18.127Z,61.00
2023-03-05T11:36:51.011Z,61.30
2023-03-05T11:39:19.459Z,62.20
2023-03-05T11:42:00.326Z,61.10
2023-03-05T11:44:48.947Z,62.10
2023-03-05T11:47:18.588Z,61.70
2023-03-05T11:49:46.744Z,61.00
2023-03-05T11:52:34.657Z,61.30
2023-03-05T11:55:04.520Z,60.90
2023-03-05T11:57:34.508Z,60.50
2023-03-05T12:00:04.702Z,60.50
2023-03-05T12:02:31.944Z,60.90
2023-03-05T12:05:05.354Z,60.10
2023-03-05T12:07:40.677Z,61.50
2023-03-05T12:10:14.528Z,60.90
2023-03-05T12:12:47.731Z,60.60
2023-03-05T12:15:18.498Z,59.30
2023-03-05T12:17:48.307Z,60.10
2023-03-05T12:20:28.084Z,60.10
2023-03-05T12:22:56.366Z,61.10
2023-03-05T12:25:46.806Z,61.30
2023-03-05T12:28:15.434Z,60.70
2023-03-05T12:30:46.653Z,60.20
2023-03-05T12:33:33.994Z,61.00
2023-03-05T12:36:19.528Z,59.70
2023-03-05T12:38:51.984Z,59.70
2023-03-05T12:41:32.994Z,60.30
2023-03-05T12:44:07.637Z,60.70
2023-03-05T12:46:38.334Z,60.70
2023-03-05T12:49:21.138Z,61.00
2023-03-05T12:51:48.879Z,60.30
2023-03-05T12:54:21.931Z,61.00
2023-03-05T12:56:48.754Z,60.70
2023-03-05T12:59:21.464Z,61.50
2023-03-05T13:02:00.577Z,61.20
2023-03-05T13:04:31.560Z,61.00
2023-03-05T13:06:59.836Z,61.10
2023-03-05T13:09:28.828Z,60.10
2023-03-05T13:11:56.157Z,59.80
2023-03-05T13:14:28.970Z,60.50
2023-03-05T13:16:55.959Z,59.70
2023-03-05T13:19:23.149Z,59.70
2023-03-05T13:22:01.971Z,60.90
2023-03-05T13:24:29.631Z,61.30
2023-03-05T13:26:57.596Z,60.70
2023-03-05T13:29:28.436Z,61.30
2023-03-05T13:31:56.920Z,61.80
2023-03-05T13:34:40.814Z,60.30
2023-03-05T13:37:21.544Z,60.90
2023-03-05T13:39:48.225Z,61.10
2023-03-05T13:42:18.954Z,62.20
2023-03-05T13:45:06.501Z,61.60
2023-03-05T13:47:34.815Z,62.40
2023-03-05T13:50:04.833Z,63.60
2023-03-05T13:52:33.982Z,62.40
2023-03-05T13:55:01.750Z,62.80
2023-03-05T13:57:34.817Z,63.00
2023-03-05T14:00:01.814Z,64.10
2023-03-05T14:02:32.378Z,63.40
2023-03-05T14:05:00.635Z,63.20
2023-03-05T14:07:56.680Z,62.50
2023-03-05T14:10:35.657Z,62.80
2023-03-05T14:13:05.147Z,62.50
2023-03-05T14:15:33.303Z,62.70
2023-03-05T14:18:11.892Z,63.60
2023-03-05T14:20:39.929Z,63.50
2023-03-05T14:23:26.872Z,62.70
2023-03-05T14:26:11.018Z,63.20
2023-03-05T14:28:38.307Z,61.90
2023-03-05T14:31:13.360Z,62.70
2023-03-05T14:33:41.117Z,62.30
2023-03-05T14:36:08.735Z,61.20
2023-03-05T14:38:39.213Z,62.20
2023-03-05T14:41:29.220Z,62.20
2023-03-05T14:43:56.612Z,62.50
2023-03-05T14:46:25.089Z,62.90
2023-03-05T14:48:51.790Z,63.90
2023-03-05T14:51:18.872Z,63.60
2023-03-05T14:53:47.608Z,63.70
2023-03-05T14:56:18.537Z,63.90
2023-03-05T14:58:46.636Z,64.20
2023-03-05T15:01:13.960Z,64.40
2023-03-05T15:03:41.597Z,63.20
2023-03-05T15:06:13.777Z,63.00
2023-03-05T15:08:40.433Z,62.40
2023-03-05T15:11:07.159Z,62.50
2023-03-05T15:13:36.724Z,63.50
2023-03-05T15:16:05.757Z,62.80
2023-03-05T15:18:32.562Z,63.30
2023-03-05T15:21:00.272Z,64.20
2023-03-05T15:23:35.229Z,63.30
2023-03-05T15:26:05.419Z,62.80
2023-03-05T15:28:34.698Z,63.50
2023-03-05T15:31:02.018Z,62.20
2023-03-05T15:33:28.773Z,63.90
2023-03-05T15:35:55.862Z,63.50
2023-03-05T15:38:22.901Z,63.40
2023-03-05T15:40:53.000Z,63.90
2023-03-05T15:43:19.670Z,63.80
2023-03-05T15:45:46.503Z,64.60
2023-03-05T15:48:13.195Z,64.60
2023-03-05T15:50:43.798Z,65.10
2023-03-05T15:53:12.638Z,65.10
2023-03-05T15:55:39.594Z,64.30
2023-03-05T15:58:06.956Z,65.00
2023-03-05T16:00:34.503Z,64.40
2023-03-05T16:03:01.263Z,65.90
2023-03-05T16:05:28.068Z,64.60
2023-03-05T16:07:55.043Z,64.30
2023-03-05T16:10:25.405Z,64.30
2023-03-05T16:12:54.634Z,64.50
2023-03-05T16:15:21.535Z,65.40
2023-03-05T16:17:50.800Z,65.80
2023-03-05T16:20:17.680Z,65.60
2023-03-05T16:22:44.823Z,63.60
2023-03-05T16:25:11.455Z,63.30
2023-03-05T16:27:38.202Z,65.40
2023-03-05T16:30:05.823Z,65.50
2023-03-05T16:32:32.662Z,65.70
2023-03-05T16:34:59.369Z,65.50
2023-03-05T16:37:26.657Z,64.40
2023-03-05T16:39:53.337Z,65.30
2023-03-05T16:42:20.250Z,64.10
2023-03-05T16:44:49.948Z,63.40
2023-03-05T16:47:17.026Z,65.00
2023-03-05T16:49:44.786Z,66.20
2023-03-05T16:52:18.662Z,65.40
2023-03-05T16:54:46.450Z,66.50
2023-03-05T16:57:13.210Z,66.00
2023-03-05T16:59:40.406Z,65.80
2023-03-05T17:02:08.192Z,65.90
2023-03-05T17:04:35.016Z,66.10
2023-03-05T17:07:03.498Z,66.10
2023-03-05T17:09:30.287Z,66.20
2023-03-05T17:11:57.278Z,66.00
2023-03-05T17:14:24.071Z,66.90
2023-03-05T17:16:51.095Z,67.00
2023-03-05T17:19:17.829Z,67.20
2023-03-05T17:21:45.611Z,66.70
2023-03-05T17:24:12.559Z,66.40
2023-03-05T17:26:39.403Z,67.10
2023-03-05T17:29:07.472Z,67.00
2023-03-05T17:31:34.201Z,66.00
2023-03-05T17:34:00.884Z,67.00
2023-03-05T17:36:28.745Z,66.60
2023-03-05T17:38:57.925Z,66.50
2023-03-05T17:41:25.098Z,67.00
2023-03-05T17:43:52.373Z,67.50
2023-03-05T17:46:20.434Z,67.40
2023-03-05T17:48:47.279Z,67.40
2023-03-05T17:51:15.345Z,67.60
2023-03-05T17:53:43.340Z,67.60
2023-03-05T17:56:13.686Z,68.10
2023-03-05T17:58:40.940Z,68.00
2023-03-05T18:01:08.261Z,68.10
2023-03-05T18:03:35.910Z,68.50
2023-03-05T18:06:03.713Z,68.90
2023-03-05T18:08:30.701Z,68.30
2023-03-05T18:10:58.748Z,68.60
2023-03-05T18:13:25.477Z,69.30
2023-03-05T18:15:54.689Z,69.90
2023-03-05T18:18:22.819Z,69.70
2023-03-05T18:20:49.839Z,69.50
2023-03-05T18:23:16.667Z,70.00
2023-03-05T18:25:44.781Z,70.10
2023-03-05T18:28:13.164Z,69.70
2023-03-05T18:30:40.913Z,69.60
2023-03-05T18:33:12.606Z,69.40
2023-03-05T18:35:39.457Z,69.70
2023-03-05T18:38:06.362Z,69.70
2023-03-05T18:40:35.145Z,69.50
2023-03-05T18:43:02.242Z,69.70
2023-03-05T18:45:29.291Z,69.90
2023-03-05T18:47:56.825Z,70.30
2023-03-05T18:50:26.151Z,70.00
2023-03-05T18:52:53.763Z,70.30
2023-03-05T18:55:22.164Z,70.50
2023-03-05T18:57:49.377Z,70.90
2023-03-05T19:00:20.333Z,70.70
2023-03-05T19:02:48.524Z,71.30
2023-03-05T19:05:17.238Z,71.60
2023-03-05T19:07:44.758Z,71.50
2023-03-05T19:10:12.580Z,71.60
2023-03-05T19:12:49.078Z,71.70
2023-03-05T19:15:16.099Z,71.80
2023-03-05T19:17:42.943Z,71.50
2023-03-05T19:20:13.322Z,71.80
2023-03-05T19:22:41.378Z,71.80
2023-03-05T19:25:09.400Z,71.80
2023-03-05T19:27:37.624Z,71.80
2023-03-05T19:30:05.317Z,71.80
2023-03-05T19:32:32.123Z,71.60
2023-03-05T19:34:58.973Z,71.60
2023-03-05T19:37:25.734Z,71.70
2023-03-05T19:39:53.575Z,71.90
2023-03-05T19:42:20.535Z,71.90
2023-03-05T19:44:47.633Z,71.70
2023-03-05T19:47:14.331Z,72.80
2023-03-05T19:49:41.382Z,72.40
2023-03-05T19:52:09.980Z,72.70
2023-03-05T19:54:36.685Z,72.60
2023-03-05T19:57:03.459Z,73.10
2023-03-05T19:59:30.165Z,73.00
2023-03-05T20:01:57.525Z,73.10
2023-03-05T20:04:25.018Z,73.00
2023-03-05T20:06:51.958Z,73.40
2023-03-05T20:09:19.436Z,73.10
2023-03-05T20:11:46.571Z,72.80
2023-03-05T20:14:14.491Z,73.10
2023-03-05T20:16:43.442Z,72.90
2023-03-05T20:19:16.130Z,73.40
2023-03-05T20:21:43.362Z,73.50
2023-03-05T20:24:17.180Z,73.20
2023-03-05T20:26:45.136Z,73.00
2023-03-05T20:29:12.520Z,73.20
2023-03-05T20:31:39.760Z,73.80
2023-03-05T20:34:07.539Z,73.20
2023-03-05T20:36:36.929Z,73.40
2023-03-05T20:39:05.117Z,73.30
2023-03-05T20:41:35.942Z,73.30
2023-03-05T20:44:03.400Z,73.10
2023-03-05T20:46:37.393Z,72.70
2023-03-05T20:49:05.247Z,72.60
2023-03-05T20:51:36.708Z,72.60
2023-03-05T20:54:08.507Z,72.60
2023-03-05T20:56:35.568Z,72.90
2023-03-05T20:59:04.670Z,73.00
2023-03-05T21:01:32.981Z,72.60
2023-03-05T21:04:00.306Z,72.80
2023-03-05T21:06:28.106Z,72.70
2023-03-05T21:08:54.970Z,72.70
2023-03-05T21:11:21.882Z,73.00
2023-03-05T21:13:48.881Z,72.90
2023-03-05T21:16:17.025Z,72.80
2023-03-05T21:18:43.670Z,73.20
2023-03-05T21:21:10.598Z,73.90
2023-03-05T21:23:37.296Z,73.70
2023-03-05T21:26:04.226Z,73.70
2023-03-05T21:28:31.972Z,73.40
2023-03-05T21:30:59.073Z,73.80
2023-03-05T21:33:27.168Z,74.00
2023-03-05T21:35:54.404Z,73.80
2023-03-05T21:38:23.125Z,74.00
2023-03-05T21:40:50.505Z,73.70
2023-03-05T21:43:17.996Z,74.00
2023-03-05T21:45:47.901Z,74.10
2023-03-05T21:48:15.521Z,73.80
2023-03-05T21:50:43.080Z,74.80
2023-03-05T21:53:10.552Z,74.30
2023-03-05T21:55:53.135Z,74.20
2023-03-05T21:58:20.024Z,74.20
2023-03-05T22:00:47.055Z,74.50
2023-03-05T22:03:13.790Z,75.00
2023-03-05T22:05:44.785Z,74.40
2023-03-05T22:08:11.427Z,74.50
2023-03-05T22:10:39.550Z,75.30
2023-03-05T22:13:14.473Z,75.20
2023-03-05T22:15:42.140Z,74.90
2023-03-05T22:18:09.077Z,74.80
2023-03-05T22:20:36.470Z,74.90
2023-03-05T22:23:06.436Z,74.40
2023-03-05T22:25:33.291Z,74.40
2023-03-05T22:27:59.940Z,74.20
2023-03-05T22:30:26.865Z,74.50
2023-03-05T22:32:53.997Z,74.60
2023-03-05T22:35:20.976Z,74.50
2023-03-05T22:37:48.061Z,74.50
2023-03-05T22:40:19.620Z,74.30
2023-03-05T22:42:46.783Z,74.40
2023-03-05T22:45:14.421Z,74.70
2023-03-05T22:47:41.576Z,74.90
2023-03-05T22:50:11.421Z,75.10
2023-03-05T22:52:38.274Z,74.60
2023-03-05T22:55:05.444Z,74.40
2023-03-05T22:57:32.528Z,74.50
2023-03-05T23:00:02.128Z,74.50
2023-03-05T23:02:28.862Z,74.30
2023-03-05T23:05:00.679Z,74.50
2023-03-05T23:07:28.626Z,74.50
2023-03-05T23:10:07.305Z,74.40
2023-03-05T23:12:35.674Z,74.50
2023-03-05T23:15:04.038Z,74.10
2023-03-05T23:17:30.831Z,74.20
2023-03-05T23:19:57.438Z,74.30
2023-03-05T23:22:24.077Z,74.30
2023-03-05T23:24:50.917Z,74.50
2023-03-05T23:27:18.346Z,74.50
2023-03-05T23:30:04.495Z,74.20
2023-03-05T23:32:31.308Z,74.00
2023-03-05T23:34:57.952Z,74.30
2023-03-05T23:37:25.012Z,74.30
2023-03-05T23:39:51.687Z,74.80
2023-03-05T23:42:19.749Z,74.50
2023-03-05T23:44:46.403Z,74.80
2023-03-05T23:47:13.150Z,75.00
2023-03-05T23:49:39.785Z,74.80
2023-03-05T23:52:06.818Z,75.10
2023-03-05T23:54:33.601Z,74.90
2023-03-05T23:57:00.394Z,74.80
2023-03-05T23:59:27.055Z,74.80
